Shakawe, Botswana
Current Conditions -  °F | °C
As of 4:00 AM on Tuesday 21 Oct 2014 (Local Time) from FBMN Reporting Station
Clear Clear  
Wind Chill: 77°   Ceiling: Unl
Heat Index: 77°   Visibility: 6mi
Dew Point: 28°   Wind: 14mph
Humidity: 17%   Direction: 80°E
Pressure: 30"   Gusts: NA
Location:  18.36°S, 21.84°E
Report Text: FBMN 210200Z 08012KT CAVOK 25/M02 Q1016
Loading
Personal Weather Stations






























Interactive Weather Map
Tropical Storm Tracking
New forecast layout! Learn more

10-Day Weather Forecast

Advertisements
Track Severe Weather on mobile